Time;durP1;ratioP1;P1;durP2;ratioP2;P2;SDS_P1;SDS_P2;PMS_P1;PMS_P2;Temp;Humidity;BMP_temperature;BMP_pressure;BME280_temperature;BME280_humidity;BME280_pressure;Samples;Min_cycle;Max_cycle;Signal;HPM_P1;HPM_P2
2021/04/13 00:00:35;;;;;;;0.80;0.80;;;17.10;48.20;;;;;;5024620;28;20174;-67
2021/04/13 00:03:06;;;;;;;0.75;0.75;;;17.10;48.20;;;;;;5057355;28;20171;-66
2021/04/13 00:05:36;;;;;;;1.25;0.77;;;17.10;48.30;;;;;;5040856;28;20182;-67
2021/04/13 00:08:12;;;;;;;1.02;0.90;;;17.10;48.20;;;;;;5057781;28;20174;-67
2021/04/13 00:10:44;;;;;;;0.82;0.75;;;17.10;48.30;;;;;;5041320;28;20249;-68
2021/04/13 00:13:11;;;;;;;1.00;0.95;;;17.10;48.30;;;;;;5041736;28;20293;-68
2021/04/13 00:16:05;;;;;;;0.70;0.70;;;17.10;48.30;;;;;;5040249;28;20293;-68
2021/04/13 00:18:30;;;;;;;1.25;0.88;;;17.10;48.30;;;;;;5042282;28;20174;-67
2021/04/13 00:20:59;;;;;;;1.15;0.90;;;17.00;48.60;;;;;;5040739;28;20209;-67
2021/04/13 00:23:25;;;;;;;0.60;0.60;;;17.00;48.30;;;;;;5040347;28;20174;-69
2021/04/13 00:25:56;;;;;;;1.38;0.90;;;17.00;48.30;;;;;;5040807;28;20172;-68
2021/04/13 00:28:27;;;;;;;0.90;0.73;;;17.00;48.30;;;;;;5024487;28;20216;-67
2021/04/13 00:30:57;;;;;;;0.90;0.80;;;17.00;48.30;;;;;;5056151;28;20695;-66
2021/04/13 00:33:30;;;;;;;0.98;0.80;;;17.00;48.30;;;;;;5041053;28;20661;-66
2021/04/13 00:36:08;;;;;;;1.33;0.80;;;16.90;48.30;;;;;;5041531;28;20178;-68
2021/04/13 00:38:54;;;;;;;0.73;0.73;;;17.00;48.30;;;;;;5042586;28;20685;-67
2021/04/13 00:41:25;;;;;;;1.42;0.98;;;17.00;48.30;;;;;;5074814;28;20186;-68
2021/04/13 00:44:02;;;;;;;0.93;0.70;;;16.90;48.30;;;;;;5040038;28;20539;-68
2021/04/13 00:46:46;;;;;;;0.85;0.70;;;16.90;48.30;;;;;;5041665;28;20206;-67
2021/04/13 00:49:13;;;;;;;1.35;0.70;;;16.90;48.30;;;;;;5059882;28;20284;-65
2021/04/13 00:51:54;;;;;;;2.17;0.63;;;16.90;48.30;;;;;;5039570;28;20556;-66
2021/04/13 00:54:53;;;;;;;1.45;0.70;;;16.90;48.30;;;;;;5024223;28;20170;-66
2021/04/13 00:57:45;;;;;;;1.60;0.73;;;16.90;48.30;;;;;;5039456;28;20182;-67
2021/04/13 01:00:23;;;;;;;0.75;0.70;;;16.90;48.30;;;;;;5056815;28;20171;-70
2021/04/13 01:02:49;;;;;;;1.05;0.68;;;16.90;48.30;;;;;;5040686;28;20182;-66
2021/04/13 01:05:19;;;;;;;1.13;0.60;;;16.90;48.30;;;;;;5056238;28;20212;-67
2021/04/13 01:07:47;;;;;;;0.75;0.70;;;16.80;48.20;;;;;;5057430;28;20175;-67
2021/04/13 01:10:15;;;;;;;2.03;0.75;;;16.80;48.20;;;;;;5040266;28;20661;-68
2021/04/13 01:12:47;;;;;;;0.80;0.80;;;16.80;48.30;;;;;;5039226;28;20215;-68
2021/04/13 01:15:13;;;;;;;1.35;0.70;;;16.80;48.30;;;;;;5037267;28;20211;-67
2021/04/13 01:17:40;;;;;;;0.98;0.80;;;16.80;48.30;;;;;;5052955;28;20171;-68
2021/04/13 01:20:11;;;;;;;1.05;0.80;;;16.80;48.40;;;;;;5036000;28;20174;-67
2021/04/13 01:23:01;;;;;;;0.70;0.55;;;16.80;48.40;;;;;;5053959;28;20568;-68
2021/04/13 01:25:35;;;;;;;0.77;0.73;;;16.80;48.40;;;;;;5039047;28;20246;-68
2021/04/13 01:28:10;;;;;;;1.05;0.60;;;16.80;48.40;;;;;;5036127;28;20603;-67
2021/04/13 01:30:44;;;;;;;0.60;0.60;;;16.80;48.40;;;;;;5037309;28;20190;-67
2021/04/13 01:33:18;;;;;;;1.27;0.70;;;16.80;48.40;;;;;;5052299;28;20218;-67
2021/04/13 01:35:49;;;;;;;0.73;0.57;;;16.70;48.40;;;;;;5037237;28;20211;-66
2021/04/13 01:38:34;;;;;;;0.73;0.73;;;16.70;48.40;;;;;;5037223;28;20171;-67
2021/04/13 01:41:28;;;;;;;1.15;0.85;;;16.70;48.40;;;;;;5051911;28;20525;-67
2021/04/13 01:43:53;;;;;;;1.58;0.90;;;16.70;48.40;;;;;;5039626;28;20178;-67
2021/04/13 01:46:19;;;;;;;0.60;0.60;;;16.70;48.40;;;;;;5035882;28;20168;-67
2021/04/13 01:48:44;;;;;;;0.80;0.70;;;16.70;48.40;;;;;;5052050;28;20178;-68
2021/04/13 01:51:11;;;;;;;0.77;0.63;;;16.70;48.40;;;;;;5052629;28;20171;-66
2021/04/13 01:53:41;;;;;;;0.75;0.75;;;16.70;48.40;;;;;;5035894;28;20581;-66
2021/04/13 01:56:08;;;;;;;0.82;0.68;;;16.60;48.30;;;;;;5036025;28;20168;-67
2021/04/13 01:58:58;;;;;;;1.63;0.75;;;16.60;48.30;;;;;;5035675;28;20163;-67
2021/04/13 02:01:37;;;;;;;0.82;0.70;;;16.60;48.30;;;;;;5018542;28;20179;-67
2021/04/13 02:04:20;;;;;;;0.75;0.60;;;16.60;48.30;;;;;;5052217;28;20231;-66
2021/04/13 02:07:06;;;;;;;1.02;0.77;;;16.60;48.30;;;;;;5036795;28;20252;-66
2021/04/13 02:09:45;;;;;;;0.70;0.70;;;16.60;48.30;;;;;;5051396;28;20533;-68
2021/04/13 02:12:12;;;;;;;1.02;0.60;;;16.60;48.30;;;;;;5052179;28;20728;-68
2021/04/13 02:14:43;;;;;;;2.05;0.73;;;16.60;48.30;;;;;;5053853;28;20330;-68
2021/04/13 02:17:19;;;;;;;0.80;0.80;;;16.60;48.40;;;;;;5038788;28;20239;-67
2021/04/13 02:19:49;;;;;;;0.80;0.77;;;16.60;48.30;;;;;;5039290;28;20162;-67
2021/04/13 02:22:16;;;;;;;0.88;0.82;;;16.60;48.30;;;;;;5072727;28;20853;-69
2021/04/13 02:24:41;;;;;;;1.25;0.90;;;16.60;48.30;;;;;;5038500;28;20178;-68
2021/04/13 02:27:15;;;;;;;0.50;0.50;;;16.50;48.30;;;;;;5038582;28;20174;-68
2021/04/13 02:29:46;;;;;;;1.55;1.00;;;16.50;48.40;;;;;;5038497;28;20507;-68
2021/04/13 02:32:34;;;;;;;0.82;0.77;;;16.50;48.30;;;;;;5038469;28;20194;-66
2021/04/13 02:35:06;;;;;;;1.27;0.50;;;16.50;48.30;;;;;;5040849;28;20178;-67
2021/04/13 02:37:39;;;;;;;1.77;0.73;;;16.50;48.40;;;;;;5054588;28;20179;-67
2021/04/13 02:40:26;;;;;;;1.13;0.80;;;16.50;48.40;;;;;;5054968;28;20171;-68
2021/04/13 02:42:53;;;;;;;0.80;0.80;;;16.50;48.30;;;;;;5038924;28;20201;-68
2021/04/13 02:45:28;;;;;;;0.77;0.60;;;16.50;48.30;;;;;;5038031;28;20163;-68
2021/04/13 02:48:02;;;;;;;0.68;0.60;;;16.40;48.40;;;;;;5072605;28;20166;-66
2021/04/13 02:50:28;;;;;;;1.15;0.73;;;16.40;48.30;;;;;;5038585;28;20287;-67
2021/04/13 02:52:54;;;;;;;0.65;0.60;;;16.40;48.30;;;;;;5037807;28;20297;-66
2021/04/13 02:55:28;;;;;;;0.68;0.68;;;16.40;48.30;;;;;;5038037;28;20178;-66
2021/04/13 02:57:55;;;;;;;1.15;0.80;;;16.40;48.40;;;;;;5054262;28;20193;-67
2021/04/13 03:00:25;;;;;;;0.85;0.70;;;16.40;48.40;;;;;;5038210;28;20165;-67
2021/04/13 03:02:55;;;;;;;1.25;0.90;;;16.40;48.40;;;;;;5055216;28;20610;-67
2021/04/13 03:05:25;;;;;;;1.15;0.70;;;16.40;48.50;;;;;;5053903;28;20174;-68
2021/04/13 03:07:50;;;;;;;0.77;0.50;;;16.40;48.50;;;;;;5038368;28;20189;-67
2021/04/13 03:10:20;;;;;;;0.70;0.70;;;16.40;48.50;;;;;;5038202;28;20214;-68
2021/04/13 03:12:49;;;;;;;1.83;0.98;;;16.40;48.50;;;;;;5054058;28;20552;-67
2021/04/13 03:15:16;;;;;;;1.23;0.80;;;16.30;48.50;;;;;;5038103;28;20210;-68
2021/04/13 03:17:48;;;;;;;1.30;0.90;;;16.30;48.50;;;;;;5021449;28;20170;-68
2021/04/13 03:20:17;;;;;;;0.50;0.50;;;16.30;48.50;;;;;;5037846;28;20666;-67
2021/04/13 03:22:43;;;;;;;1.63;1.10;;;16.30;48.50;;;;;;5021543;28;20608;-68
2021/04/13 03:25:10;;;;;;;0.80;0.80;;;16.30;48.50;;;;;;5054548;28;20208;-67
2021/04/13 03:27:36;;;;;;;0.65;0.65;;;16.30;48.60;;;;;;5037188;28;20282;-67
2021/04/13 03:30:15;;;;;;;1.20;0.73;;;16.30;48.60;;;;;;5037742;28;20258;-66
2021/04/13 03:32:57;;;;;;;0.65;0.63;;;16.30;48.60;;;;;;5053635;28;20205;-66
2021/04/13 03:35:24;;;;;;;0.93;0.90;;;16.30;48.60;;;;;;5054258;28;20174;-67
2021/04/13 03:37:50;;;;;;;0.70;0.60;;;16.30;48.50;;;;;;5054557;28;20166;-68
2021/04/13 03:40:17;;;;;;;1.90;0.93;;;16.30;48.60;;;;;;5020729;28;20179;-69
2021/04/13 03:42:42;;;;;;;0.73;0.73;;;16.30;48.60;;;;;;5037653;28;20170;-68
2021/04/13 03:45:09;;;;;;;0.88;0.80;;;16.20;48.60;;;;;;5037590;28;20247;-68
2021/04/13 03:47:37;;;;;;;1.52;0.70;;;16.20;48.50;;;;;;5037151;28;20178;-67
2021/04/13 03:50:04;;;;;;;0.60;0.60;;;16.20;48.50;;;;;;5037835;28;20262;-66
2021/04/13 03:52:32;;;;;;;0.77;0.60;;;16.20;48.60;;;;;;5021202;28;20229;-67
2021/04/13 03:55:13;;;;;;;1.55;0.90;;;16.20;48.60;;;;;;5037173;28;20167;-67
2021/04/13 03:57:39;;;;;;;1.05;0.95;;;16.20;48.60;;;;;;5037808;28;20173;-68
2021/04/13 04:00:07;;;;;;;1.25;0.60;;;16.20;48.60;;;;;;5054128;28;20175;-68
2021/04/13 04:02:33;;;;;;;1.17;0.70;;;16.20;48.70;;;;;;5036942;28;20179;-68
2021/04/13 04:05:17;;;;;;;0.77;0.70;;;16.20;48.70;;;;;;5054680;28;20223;-67
2021/04/13 04:07:54;;;;;;;0.77;0.77;;;16.10;48.70;;;;;;5040908;28;20171;-68
2021/04/13 04:10:55;;;;;;;0.60;0.60;;;16.20;48.70;;;;;;5075367;28;20185;-67
2021/04/13 04:13:26;;;;;;;0.90;0.70;;;16.10;48.70;;;;;;5016740;28;20256;-66
2021/04/13 04:16:04;;;;;;;1.20;0.82;;;16.20;48.80;;;;;;5037261;28;20218;-68
2021/04/13 04:18:31;;;;;;;2.10;0.73;;;16.10;48.80;;;;;;5075253;28;20196;-67
2021/04/13 04:20:58;;;;;;;1.48;0.70;;;16.10;49.40;;;;;;5057596;28;20574;-67
2021/04/13 04:23:33;;;;;;;0.80;0.80;;;16.10;48.70;;;;;;5074472;28;20186;-67
2021/04/13 04:26:05;;;;;;;1.20;0.77;;;16.10;48.70;;;;;;5057632;28;20253;-68
2021/04/13 04:28:34;;;;;;;0.70;0.70;;;16.10;48.80;;;;;;5041141;28;20171;-68
2021/04/13 04:31:35;;;;;;;1.25;0.90;;;16.10;48.80;;;;;;5057840;28;20212;-66
2021/04/13 04:34:15;;;;;;;1.95;1.05;;;16.10;48.80;;;;;;5075040;28;20181;-65
2021/04/13 04:36:44;;;;;;;0.60;0.60;;;16.10;48.80;;;;;;5074352;28;20171;-67
2021/04/13 04:39:35;;;;;;;0.80;0.75;;;16.10;48.80;;;;;;5075019;28;20163;-67
2021/04/13 04:42:09;;;;;;;0.90;0.75;;;16.10;48.70;;;;;;5057336;28;20187;-68
2021/04/13 04:44:34;;;;;;;0.63;0.63;;;16.00;48.70;;;;;;5057128;28;20174;-68
2021/04/13 04:47:00;;;;;;;1.65;0.90;;;16.00;48.70;;;;;;5057084;28;20209;-68
2021/04/13 04:49:47;;;;;;;0.63;0.63;;;16.00;49.30;;;;;;5040320;28;20612;-67
2021/04/13 04:52:13;;;;;;;1.42;0.70;;;16.00;48.70;;;;;;5075008;28;20209;-67
2021/04/13 04:54:38;;;;;;;0.80;0.80;;;16.00;48.70;;;;;;5074478;28;20634;-67
2021/04/13 04:57:04;;;;;;;1.77;0.98;;;16.00;48.70;;;;;;5056402;28;20171;-67
2021/04/13 04:59:30;;;;;;;0.77;0.70;;;16.00;48.70;;;;;;5056626;28;20178;-68
2021/04/13 05:01:56;;;;;;;1.58;0.85;;;16.00;48.70;;;;;;5074595;28;20174;-67
2021/04/13 05:04:21;;;;;;;1.02;1.00;;;16.00;48.70;;;;;;5055863;28;20182;-68
2021/04/13 05:06:47;;;;;;;0.70;0.60;;;16.00;48.80;;;;;;5074638;28;20178;-67
2021/04/13 05:09:12;;;;;;;1.17;0.88;;;16.00;48.70;;;;;;5074723;28;20249;-67
2021/04/13 05:11:38;;;;;;;1.10;0.85;;;16.00;48.70;;;;;;5055503;28;20606;-67
2021/04/13 05:14:03;;;;;;;1.45;0.80;;;16.00;48.80;;;;;;5074358;28;20171;-68
2021/04/13 05:16:29;;;;;;;0.70;0.70;;;16.20;48.90;;;;;;5073929;28;20226;-67
2021/04/13 05:18:55;;;;;;;1.52;0.85;;;16.50;48.60;;;;;;5073838;28;20170;-67
2021/04/13 05:21:20;;;;;;;1.05;0.60;;;16.80;48.50;;;;;;5056277;28;20175;-67
2021/04/13 05:23:46;;;;;;;0.60;0.60;;;17.10;48.00;;;;;;5039988;28;20524;-66
2021/04/13 05:26:12;;;;;;;0.60;0.60;;;17.40;47.50;;;;;;5073525;28;20254;-68
2021/04/13 05:28:37;;;;;;;1.00;0.90;;;17.80;46.60;;;;;;5073931;28;20174;-67
2021/04/13 05:31:03;;;;;;;1.38;0.57;;;18.10;46.20;;;;;;5056301;28;20229;-65
2021/04/13 05:33:29;;;;;;;0.75;0.73;;;18.30;45.70;;;;;;5055341;28;20578;-66
2021/04/13 05:35:55;;;;;;;1.08;0.70;;;18.50;45.50;;;;;;5039284;28;20269;-67
2021/04/13 05:38:29;;;;;;;1.23;0.60;;;18.60;45.20;;;;;;5039395;28;20170;-67
2021/04/13 05:40:57;;;;;;;1.27;0.60;;;18.70;45.10;;;;;;5056548;28;20162;-68
2021/04/13 05:43:22;;;;;;;1.05;0.60;;;18.80;45.10;;;;;;5073673;28;20272;-67
2021/04/13 05:45:48;;;;;;;1.33;0.75;;;18.80;45.10;;;;;;5073720;28;20642;-68
2021/04/13 05:48:14;;;;;;;1.17;0.95;;;18.80;45.00;;;;;;5038794;28;20194;-69
2021/04/13 05:50:41;;;;;;;1.45;0.60;;;18.80;45.20;;;;;;5055701;28;20205;-66
2021/04/13 05:53:08;;;;;;;1.02;0.70;;;18.70;45.20;;;;;;5072959;28;20260;-65
2021/04/13 05:55:34;;;;;;;0.98;0.77;;;18.60;45.40;;;;;;5039375;28;20683;-67
2021/04/13 05:58:04;;;;;;;0.80;0.57;;;18.50;45.60;;;;;;5073477;28;20182;-66
2021/04/13 06:00:30;;;;;;;1.85;0.50;;;18.50;45.80;;;;;;5039017;28;20171;-66
2021/04/13 06:02:56;;;;;;;0.50;0.50;;;18.40;45.80;;;;;;5022605;28;20256;-65
2021/04/13 06:05:23;;;;;;;0.93;0.63;;;18.40;45.90;;;;;;5038716;28;20530;-68
2021/04/13 06:07:49;;;;;;;0.82;0.60;;;18.40;45.80;;;;;;5055245;28;20170;-68
2021/04/13 06:10:15;;;;;;;1.15;0.70;;;18.40;45.80;;;;;;5039059;28;20544;-67
2021/04/13 06:12:41;;;;;;;0.98;0.45;;;18.50;45.90;;;;;;5055102;28;20289;-68
2021/04/13 06:15:08;;;;;;;0.47;0.47;;;18.50;45.80;;;;;;5038021;28;20226;-66
2021/04/13 06:17:33;;;;;;;0.45;0.45;;;18.60;45.90;;;;;;5038458;28;20178;-67
2021/04/13 06:19:59;;;;;;;1.85;0.65;;;18.60;45.70;;;;;;5073150;28;20224;-68
2021/04/13 06:22:24;;;;;;;1.25;0.70;;;18.60;45.80;;;;;;5072154;28;20171;-65
2021/04/13 06:24:51;;;;;;;1.10;1.00;;;18.60;45.90;;;;;;5072800;28;20167;-73
2021/04/13 06:27:16;;;;;;;3.40;0.80;;;18.70;46.00;;;;;;5073006;28;20634;-68
2021/04/13 06:29:42;;;;;;;2.40;0.90;;;18.70;46.20;;;;;;5071918;28;20185;-63
2021/04/13 06:32:08;;;;;;;3.78;1.30;;;18.80;46.30;;;;;;5072867;28;20245;-65
2021/04/13 06:34:34;;;;;;;1.92;1.10;;;18.80;46.30;;;;;;5054705;28;20167;-67
2021/04/13 06:37:01;;;;;;;3.80;1.35;;;18.80;46.10;;;;;;5054252;28;20286;-67
2021/04/13 06:39:26;;;;;;;3.30;1.13;;;18.70;46.90;;;;;;5038037;28;20643;-63
2021/04/13 06:42:07;;;;;;;4.00;1.20;;;18.90;46.30;;;;;;5054717;28;20245;-64
2021/04/13 06:44:57;;;;;;;4.25;1.60;;;18.80;46.40;;;;;;5039210;28;20544;-66
2021/04/13 06:47:25;;;;;;;4.30;1.48;;;18.90;46.50;;;;;;5054477;28;20173;-67
2021/04/13 06:50:13;;;;;;;4.47;1.13;;;18.90;46.50;;;;;;5071995;28;20190;-68
2021/04/13 06:52:49;;;;;;;2.75;1.10;;;18.90;46.60;;;;;;5072520;28;20214;-70
2021/04/13 06:55:49;;;;;;;2.03;1.00;;;19.00;46.70;;;;;;5072577;28;20158;-65
2021/04/13 06:58:38;;;;;;;4.40;1.55;;;18.90;46.70;;;;;;5071942;28;20174;-66
2021/04/13 07:01:09;;;;;;;5.50;1.20;;;18.90;46.70;;;;;;5056931;28;20170;-65
2021/04/13 07:03:54;;;;;;;5.00;1.48;;;18.90;46.80;;;;;;5071680;28;20501;-66
2021/04/13 07:06:39;;;;;;;2.38;1.10;;;18.90;46.80;;;;;;5038609;28;20177;-66
2021/04/13 07:09:18;;;;;;;1.85;1.10;;;18.80;46.90;;;;;;5038612;28;20171;-65
2021/04/13 07:11:55;;;;;;;3.00;1.20;;;18.70;47.00;;;;;;5038911;28;20198;-66
2021/04/13 07:14:46;;;;;;;2.53;1.10;;;18.60;47.10;;;;;;5054493;28;20598;-65
2021/04/13 07:17:48;;;;;;;3.90;1.00;;;18.60;47.10;;;;;;5031064;28;20196;-65
2021/04/13 07:20:21;;;;;;;2.28;1.25;;;18.70;47.20;;;;;;5031589;28;20183;-66
2021/04/13 07:22:50;;;;;;;1.02;0.88;;;18.60;47.20;;;;;;5031174;28;20195;-66
2021/04/13 07:25:20;;;;;;;2.45;1.30;;;18.50;47.40;;;;;;5030416;28;20194;-66
2021/04/13 07:28:07;;;;;;;1.60;0.85;;;18.40;47.50;;;;;;5031262;28;20518;-66
2021/04/13 07:31:06;;;;;;;2.33;1.15;;;18.30;47.60;;;;;;5031208;28;20171;-64
2021/04/13 07:33:32;;;;;;;2.67;1.05;;;18.30;47.70;;;;;;5026531;28;20219;-64
2021/04/13 07:36:02;;;;;;;1.77;0.90;;;18.30;47.90;;;;;;5030774;28;20676;-65
2021/04/13 07:38:36;;;;;;;1.27;1.10;;;18.30;47.90;;;;;;5030256;28;20214;-66
2021/04/13 07:41:28;;;;;;;2.90;1.02;;;18.30;48.00;;;;;;5033270;28;20237;-67
2021/04/13 07:43:57;;;;;;;3.05;0.95;;;18.30;48.00;;;;;;5034604;28;20590;-66
2021/04/13 07:46:45;;;;;;;1.05;0.90;;;18.40;47.90;;;;;;5034013;28;20176;-66
2021/04/13 07:49:14;;;;;;;2.20;0.80;;;18.40;47.80;;;;;;5034745;28;20164;-69
2021/04/13 07:51:45;;;;;;;3.08;0.90;;;18.30;47.80;;;;;;5035595;28;20238;-66
2021/04/13 07:54:39;;;;;;;0.73;0.70;;;18.30;47.80;;;;;;5035185;28;20168;-67
2021/04/13 07:57:18;;;;;;;2.72;1.10;;;18.30;47.90;;;;;;5041866;28;20695;-66
2021/04/13 08:00:00;;;;;;;2.83;1.02;;;18.30;48.00;;;;;;5034238;28;20565;-66
2021/04/13 08:02:26;;;;;;;2.25;1.08;;;18.30;48.00;;;;;;5019522;28;20678;-67
2021/04/13 08:04:52;;;;;;;1.60;0.80;;;18.30;48.70;;;;;;5034431;28;20168;-65
2021/04/13 08:07:24;;;;;;;2.35;1.08;;;18.30;48.10;;;;;;5033975;28;20244;-65
2021/04/13 08:10:08;;;;;;;1.63;1.00;;;18.40;48.10;;;;;;5035554;28;20168;-66
2021/04/13 08:12:35;;;;;;;1.55;0.93;;;18.40;48.00;;;;;;5035186;28;20206;-66
2021/04/13 08:15:08;;;;;;;1.85;0.85;;;18.40;48.00;;;;;;5023212;28;20218;-65
2021/04/13 08:17:45;;;;;;;2.15;1.05;;;18.40;48.00;;;;;;5074932;28;20178;-66
2021/04/13 08:20:11;;;;;;;1.85;0.90;;;18.40;48.00;;;;;;5041977;28;20174;-66
2021/04/13 08:22:49;;;;;;;1.30;0.80;;;18.40;48.20;;;;;;5056318;28;20182;-67
2021/04/13 08:25:48;;;;;;;1.55;0.70;;;18.30;48.10;;;;;;5075344;28;20192;-65
2021/04/13 08:28:37;;;;;;;1.38;0.93;;;18.30;48.30;;;;;;5059445;28;20178;-66
2021/04/13 08:34:33;;;;;;;0.98;0.82;;;18.40;48.40;;;;;;5059827;28;20253;-66
2021/04/13 08:37:19;;;;;;;1.92;0.95;;;18.40;48.20;;;;;;5056781;28;20173;-67
2021/04/13 08:39:58;;;;;;;1.25;0.80;;;18.50;48.20;;;;;;5074992;28;20176;-67
2021/04/13 08:42:30;;;;;;;2.45;0.82;;;18.50;48.20;;;;;;5056266;28;20177;-69
2021/04/13 08:44:57;;;;;;;0.98;0.70;;;18.50;48.20;;;;;;5057072;28;20220;-66
2021/04/13 08:47:36;;;;;;;2.95;0.90;;;18.40;48.20;;;;;;5056706;28;20198;-66
2021/04/13 08:50:01;;;;;;;1.08;0.60;;;18.40;48.20;;;;;;5057789;28;20173;-65
2021/04/13 08:52:33;;;;;;;2.97;0.93;;;18.40;48.20;;;;;;5039723;28;20682;-66
2021/04/13 08:55:13;;;;;;;0.82;0.68;;;18.50;48.20;;;;;;5056876;28;20170;-71
2021/04/13 08:58:01;;;;;;;0.93;0.65;;;18.50;48.20;;;;;;5073887;28;20182;-66
2021/04/13 09:00:48;;;;;;;1.15;0.60;;;18.60;48.20;;;;;;5049654;28;20182;-62
2021/04/13 09:03:15;;;;;;;3.38;0.90;;;18.60;48.10;;;;;;5056164;28;20643;-68
2021/04/13 09:05:42;;;;;;;2.83;0.98;;;18.60;48.10;;;;;;5056379;28;20528;-65
2021/04/13 09:08:07;;;;;;;2.78;0.65;;;18.60;48.20;;;;;;5040061;28;20430;-66
2021/04/13 09:10:37;;;;;;;2.08;1.00;;;18.50;48.20;;;;;;5073477;28;20574;-66
2021/04/13 09:13:21;;;;;;;2.30;1.00;;;18.40;48.40;;;;;;5040075;28;20206;-63
2021/04/13 09:15:52;;;;;;;1.70;0.80;;;18.40;48.60;;;;;;5074043;28;20584;-69
2021/04/13 09:18:44;;;;;;;2.63;0.90;;;18.40;48.70;;;;;;5073770;28;20162;-65
2021/04/13 09:21:30;;;;;;;1.60;0.80;;;18.40;48.50;;;;;;5056321;28;20702;-64
2021/04/13 09:24:04;;;;;;;2.15;0.80;;;18.40;48.50;;;;;;5073678;28;20273;-67
2021/04/13 09:26:53;;;;;;;2.00;0.90;;;18.40;48.50;;;;;;5056100;28;20162;-74
2021/04/13 09:29:40;;;;;;;1.70;0.90;;;18.50;48.40;;;;;;5056596;28;20174;-66
2021/04/13 09:32:31;;;;;;;2.22;0.85;;;18.40;48.50;;;;;;5048703;28;20221;-67
2021/04/13 09:35:03;;;;;;;1.60;1.10;;;18.40;48.50;;;;;;5059112;28;20182;-65
2021/04/13 09:37:46;;;;;;;0.85;0.70;;;18.30;48.80;;;;;;5073653;28;20175;-67
2021/04/13 09:40:36;;;;;;;2.92;0.70;;;18.20;48.90;;;;;;5038828;28;20174;-63
2021/04/13 09:43:29;;;;;;;3.25;0.80;;;18.30;48.90;;;;;;5055955;28;20175;-65
2021/04/13 09:46:07;;;;;;;1.45;0.70;;;18.30;48.70;;;;;;5057985;28;20158;-67
2021/04/13 09:48:54;;;;;;;1.40;0.60;;;18.40;48.70;;;;;;5073495;28;20175;-66
2021/04/13 09:51:53;;;;;;;1.00;0.63;;;18.50;48.60;;;;;;5073542;28;20601;-66
2021/04/13 09:54:37;;;;;;;0.80;0.70;;;18.50;48.40;;;;;;5072450;28;20182;-66
2021/04/13 09:57:12;;;;;;;1.67;0.65;;;18.50;48.50;;;;;;5040780;28;20170;-65
2021/04/13 09:59:45;;;;;;;1.45;0.90;;;18.40;48.70;;;;;;5072737;28;20166;-65
2021/04/13 10:02:52;;;;;;;1.55;0.90;;;18.30;48.70;;;;;;5055985;28;20174;-65
2021/04/13 10:05:26;;;;;;;1.67;0.80;;;18.30;48.80;;;;;;5058157;28;20163;-64
2021/04/13 10:07:59;;;;;;;1.15;0.70;;;18.40;48.80;;;;;;5039274;28;20176;-69
2021/04/13 10:10:42;;;;;;;1.80;0.77;;;18.50;49.20;;;;;;5038649;28;20174;-69
2021/04/13 10:13:24;;;;;;;1.05;0.77;;;18.60;48.40;;;;;;5040566;28;20206;-66
2021/04/13 10:16:05;;;;;;;1.92;0.70;;;18.50;48.40;;;;;;5055014;28;20411;-69
2021/04/13 10:18:40;;;;;;;1.38;0.60;;;18.40;48.70;;;;;;5072608;28;20638;-65
2021/04/13 10:21:44;;;;;;;3.13;0.68;;;18.50;48.80;;;;;;5072324;28;20174;-65
2021/04/13 10:24:28;;;;;;;2.08;0.73;;;18.60;49.20;;;;;;5057767;28;20636;-67
2021/04/13 10:26:54;;;;;;;2.47;0.70;;;18.70;48.50;;;;;;5073043;28;20176;-64
2021/04/13 10:29:34;;;;;;;2.50;0.80;;;18.70;48.40;;;;;;5072181;28;20608;-67
2021/04/13 10:32:47;;;;;;;1.85;0.98;;;18.80;48.30;;;;;;5073023;28;20560;-68
2021/04/13 10:35:33;;;;;;;1.17;0.63;;;18.70;48.60;;;;;;5030069;28;20628;-66
2021/04/13 10:38:17;;;;;;;2.22;0.70;;;18.80;48.60;;;;;;5071975;28;20193;-69
2021/04/13 10:41:00;;;;;;;0.95;0.50;;;18.80;48.40;;;;;;5072484;28;20151;-70
2021/04/13 10:44:10;;;;;;;0.77;0.50;;;18.90;48.40;;;;;;5072011;28;20163;-64
2021/04/13 10:47:02;;;;;;;2.95;0.90;;;18.80;48.30;;;;;;5056444;28;20576;-68
2021/04/13 10:49:59;;;;;;;3.75;0.77;;;18.70;48.40;;;;;;5039205;28;20622;-70
2021/04/13 10:53:02;;;;;;;2.08;0.60;;;18.60;48.60;;;;;;5058348;28;20707;-59
2021/04/13 10:55:56;;;;;;;2.42;0.98;;;18.60;48.90;;;;;;5071619;28;20652;-68
2021/04/13 10:58:51;;;;;;;2.60;0.80;;;18.60;48.80;;;;;;5070072;28;20183;-61
2021/04/13 11:01:44;;;;;;;2.35;0.70;;;18.50;49.10;;;;;;5055864;28;20545;-67
2021/04/13 11:04:44;;;;;;;1.15;0.75;;;18.40;48.90;;;;;;5053727;28;20582;-68
2021/04/13 11:07:28;;;;;;;1.65;0.70;;;18.50;49.10;;;;;;5038019;28;20178;-67
2021/04/13 11:10:06;;;;;;;1.83;0.70;;;18.50;49.10;;;;;;5053587;28;20178;-66
2021/04/13 11:13:11;;;;;;;1.95;0.60;;;18.50;49.00;;;;;;5071934;28;20304;-66
2021/04/13 11:16:02;;;;;;;4.07;0.95;;;18.60;48.90;;;;;;5062529;28;20210;-67
2021/04/13 11:18:43;;;;;;;1.08;0.80;;;18.70;48.90;;;;;;5062724;28;20273;-67
2021/04/13 11:21:14;;;;;;;1.92;0.80;;;18.60;49.10;;;;;;5060929;28;20652;-70
2021/04/13 11:24:16;;;;;;;2.03;0.60;;;18.60;49.20;;;;;;5060178;28;20198;-69
2021/04/13 11:26:57;;;;;;;2.15;0.60;;;18.60;49.00;;;;;;5078766;28;20223;-74
2021/04/13 11:29:33;;;;;;;1.17;0.70;;;18.60;48.90;;;;;;5061876;28;20546;-66
2021/04/13 11:32:04;;;;;;;2.70;0.80;;;18.60;49.10;;;;;;5078217;28;20708;-65
2021/04/13 11:34:46;;;;;;;2.05;0.73;;;18.50;49.00;;;;;;5060542;28;20523;-65
2021/04/13 11:37:33;;;;;;;2.00;0.65;;;18.40;49.10;;;;;;5028625;28;20202;-67
2021/04/13 11:39:59;;;;;;;2.65;0.65;;;18.40;49.20;;;;;;5078615;28;20174;-67
2021/04/13 11:42:27;;;;;;;1.67;0.88;;;18.50;49.00;;;;;;5060590;28;20178;-68
2021/04/13 11:45:20;;;;;;;0.60;0.47;;;18.60;48.80;;;;;;5027104;28;20185;-66
2021/04/13 11:47:53;;;;;;;3.78;1.13;;;18.70;48.60;;;;;;5060821;28;20638;-63
2021/04/13 11:50:40;;;;;;;2.55;0.85;;;18.60;48.80;;;;;;5060933;28;20171;-63
2021/04/13 11:53:11;;;;;;;2.55;0.80;;;18.60;48.70;;;;;;5043955;28;20229;-65
2021/04/13 11:55:38;;;;;;;3.45;0.98;;;18.60;48.90;;;;;;5044272;28;20170;-68
2021/04/13 11:58:12;;;;;;;0.75;0.50;;;18.60;48.90;;;;;;5091566;28;20173;-64
2021/04/13 12:00:38;;;;;;;2.15;0.70;;;18.50;49.00;;;;;;5072452;28;20196;-67
2021/04/13 12:03:09;;;;;;;1.20;0.57;;;18.40;49.20;;;;;;5083196;28;20205;-68
2021/04/13 12:05:46;;;;;;;1.10;0.60;;;18.50;49.30;;;;;;5080539;28;20169;-63
2021/04/13 12:08:30;;;;;;;1.90;0.70;;;18.60;49.00;;;;;;5081423;28;20170;-63
2021/04/13 12:11:41;;;;;;;1.30;0.70;;;18.70;48.90;;;;;;5098878;28;20298;-64
2021/04/13 12:14:42;;;;;;;1.15;0.55;;;18.70;48.90;;;;;;5072822;28;20197;-65
2021/04/13 12:17:11;;;;;;;1.90;0.70;;;18.60;49.10;;;;;;5083368;28;20282;-66
2021/04/13 12:20:06;;;;;;;5.45;0.90;;;18.70;48.90;;;;;;5063935;28;20205;-63
2021/04/13 12:22:36;;;;;;;1.13;0.70;;;18.90;48.80;;;;;;5083510;28;20174;-66
2021/04/13 12:25:03;;;;;;;1.83;0.60;;;18.90;48.80;;;;;;5098728;28;20264;-65
2021/04/13 12:27:28;;;;;;;2.88;0.60;;;19.00;48.80;;;;;;5076054;28;20583;-63
2021/04/13 12:30:29;;;;;;;0.50;0.50;;;19.00;48.80;;;;;;5095443;28;20181;-63
2021/04/13 12:32:54;;;;;;;2.00;0.63;;;19.10;48.90;;;;;;5077406;28;20243;-66
2021/04/13 12:35:48;;;;;;;1.95;0.60;;;19.00;49.40;;;;;;5094443;28;20697;-63
2021/04/13 12:38:35;;;;;;;0.70;0.50;;;19.00;49.40;;;;;;5095607;28;20614;-66
2021/04/13 12:41:21;;;;;;;0.68;0.52;;;19.30;49.40;;;;;;5094522;28;20182;-69
2021/04/13 12:43:58;;;;;;;1.05;0.55;;;19.80;48.40;;;;;;5095336;28;20170;-67
2021/04/13 12:46:32;;;;;;;1.35;0.55;;;20.30;47.70;;;;;;5060355;28;20590;-65
2021/04/13 12:49:32;;;;;;;1.27;0.77;;;20.50;47.30;;;;;;5094528;28;20161;-64
2021/04/13 12:52:02;;;;;;;1.35;0.40;;;20.70;46.80;;;;;;5069407;28;20206;-64
2021/04/13 12:54:43;;;;;;;2.03;0.75;;;20.90;46.70;;;;;;5094809;28;20174;-64
2021/04/13 12:57:13;;;;;;;0.63;0.52;;;20.90;46.50;;;;;;5060034;28;20245;-65
2021/04/13 12:59:39;;;;;;;2.03;0.50;;;21.00;46.20;;;;;;5076835;28;20170;-65
2021/04/13 13:02:07;;;;;;;0.50;0.30;;;21.20;46.00;;;;;;5076071;28;20177;-65
2021/04/13 13:04:36;;;;;;;2.03;0.50;;;21.30;45.80;;;;;;5060372;28;20173;-65
2021/04/13 13:07:03;;;;;;;1.38;0.55;;;21.40;45.70;;;;;;5094887;28;20162;-65
2021/04/13 13:09:39;;;;;;;1.20;0.70;;;21.40;45.40;;;;;;5059362;28;20216;-64
2021/04/13 13:12:06;;;;;;;0.82;0.40;;;21.50;45.30;;;;;;5060948;28;20193;-69
2021/04/13 13:14:33;;;;;;;0.52;0.30;;;21.60;45.30;;;;;;5094303;28;20215;-64
2021/04/13 13:16:59;;;;;;;1.20;0.63;;;21.60;45.20;;;;;;5056006;28;20214;-66
2021/04/13 13:19:29;;;;;;;0.40;0.40;;;21.60;45.40;;;;;;5072976;28;20171;-66
2021/04/13 13:21:56;;;;;;;1.25;0.45;;;21.30;45.70;;;;;;5073145;28;20162;-70
2021/04/13 13:24:32;;;;;;;1.23;0.30;;;21.00;46.10;;;;;;5072151;28;20170;-69
2021/04/13 13:27:09;;;;;;;0.40;0.30;;;20.80;46.40;;;;;;5073149;28;20174;-66
2021/04/13 13:29:35;;;;;;;1.50;0.30;;;20.60;46.70;;;;;;5072692;28;20650;-65
2021/04/13 13:32:01;;;;;;;1.48;0.40;;;20.60;46.90;;;;;;5073317;28;20238;-66
2021/04/13 13:34:26;;;;;;;0.68;0.50;;;20.50;46.90;;;;;;5072363;28;20641;-65